Flag Lama — V7QE5 — position and weather

sailwx.info

Track history (hours):
 
Tides and Currents Weather Stations Pressure Air Temp Water Temp Dewpoint Dewpoint Depression Visibility Wind Speed Wind Dir Waves Ship Positions

Flag Lama

Last reported at 2018-Apr-24 11:14 UTC. Time now 2018-Apr-26 09:52 UTC.
Position S 31°39' E 031°22'.

Length 229 m; draft 9 m.

Type: Cargo ship. MMSI: 538006963.

Date/timePositionNaut miles runAvg speedWind from/ knotsBaromVisibWave heightAir tempDewpointWater temp
2018-Apr-24 11:14S 31°39' E 031°22'312.5
2018-Apr-24 11:00S 31°37' E 031°25'612.0
2018-Apr-24 10:28S 31°34' E 031°32'711.9
2018-Apr-24 09:53S 31°30' E 031°39'512.3
2018-Apr-24 09:30S 31°27' E 031°43'612.5
2018-Apr-24 09:00S 31°24' E 031°49'612.3
2018-Apr-24 08:30S 31°20' E 031°55'612.5
2018-Apr-24 08:00S 31°16' E 032°00'612.8
2018-Apr-24 07:30S 31°12' E 032°06'612.5
2018-Apr-24 07:00S 31°09' E 032°12'612.5
2018-Apr-24 06:30S 31°05' E 032°18'612.7
2018-Apr-24 06:00S 31°00' E 032°23'612.7
2018-Apr-24 05:30S 30°58' E 032°30'612.9
2018-Apr-24 05:00S 30°56' E 032°37'612.7
2018-Apr-24 04:30S 30°53' E 032°44'612.4
2018-Apr-24 04:00S 30°51' E 032°51'612.4
2018-Apr-24 03:30S 30°49' E 032°58'612.7
2018-Apr-24 03:00S 30°46' E 033°05'913.2
2018-Apr-24 02:19S 30°43' E 033°14'913.5
2018-Apr-24 01:39S 30°40' E 033°24'213.1
2018-Apr-24 01:30S 30°39' E 033°26'613.1
2018-Apr-24 01:00S 30°37' E 033°33'612.7
2018-Apr-24 00:30S 30°34' E 033°40'1112.4
2018-Apr-23 23:36S 30°30' E 033°52'312.5
2018-Apr-23 23:23S 30°29' E 033°55'813.1
2018-Apr-23 22:49S 30°26' E 034°03'613.4
2018-Apr-23 22:22S 30°24' E 034°09'613.6
2018-Apr-23 21:57S 30°22' E 034°15'713.6
2018-Apr-23 21:28S 30°20' E 034°23'  
Track history (hours):
 
Tides and Currents Weather Stations Pressure Air Temp Water Temp Dewpoint Dewpoint Depression Visibility Wind Speed Wind Dir Waves Ship Positions

Flag Lama

Last reported at 2018-Apr-24 11:14 UTC. Time now 2018-Apr-26 09:52 UTC.
Position S 31°39' E 031°22'.

Length 229 m; draft 9 m.

Type: Cargo ship. MMSI: 538006963.

Date/timePositionNaut miles runAvg speedWind from/ knotsBaromVisibWave heightAir tempDewpointWater temp
2018-Apr-24 11:14S 31°39' E 031°22'312.5
2018-Apr-24 11:00S 31°37' E 031°25'612.0
2018-Apr-24 10:28S 31°34' E 031°32'711.9
2018-Apr-24 09:53S 31°30' E 031°39'512.3
2018-Apr-24 09:30S 31°27' E 031°43'612.5
2018-Apr-24 09:00S 31°24' E 031°49'612.3
2018-Apr-24 08:30S 31°20' E 031°55'612.5
2018-Apr-24 08:00S 31°16' E 032°00'612.8
2018-Apr-24 07:30S 31°12' E 032°06'612.5
2018-Apr-24 07:00S 31°09' E 032°12'612.5
2018-Apr-24 06:30S 31°05' E 032°18'612.7
2018-Apr-24 06:00S 31°00' E 032°23'612.7
2018-Apr-24 05:30S 30°58' E 032°30'612.9
2018-Apr-24 05:00S 30°56' E 032°37'612.7
2018-Apr-24 04:30S 30°53' E 032°44'612.4
2018-Apr-24 04:00S 30°51' E 032°51'612.4
2018-Apr-24 03:30S 30°49' E 032°58'612.7
2018-Apr-24 03:00S 30°46' E 033°05'913.2
2018-Apr-24 02:19S 30°43' E 033°14'913.5
2018-Apr-24 01:39S 30°40' E 033°24'213.1
2018-Apr-24 01:30S 30°39' E 033°26'613.1
2018-Apr-24 01:00S 30°37' E 033°33'612.7
2018-Apr-24 00:30S 30°34' E 033°40'1112.4
2018-Apr-23 23:36S 30°30' E 033°52'312.5
2018-Apr-23 23:23S 30°29' E 033°55'813.1
2018-Apr-23 22:49S 30°26' E 034°03'613.4
2018-Apr-23 22:22S 30°24' E 034°09'613.6
2018-Apr-23 21:57S 30°22' E 034°15'713.6
2018-Apr-23 21:28S 30°20' E 034°23'  

Dump ship's entire track history